sensor_id;sensor_type;location;lat;lon;timestamp;pressure;altitude;pressure_sealevel;temperature;humidity
41624;BME280;27319;50.306;18.926;2023-03-04T00:00:14;98224.25;;;0.25;93.29
41624;BME280;27319;50.306;18.926;2023-03-04T00:04:16;98227.53;;;0.28;92.85
41624;BME280;27319;50.306;18.926;2023-03-04T00:07:56;98220.03;;;0.35;92.38
41624;BME280;27319;50.306;18.926;2023-03-04T00:11:17;98213.91;;;0.34;92.70
41624;BME280;27319;50.306;18.926;2023-03-04T00:15:18;98213.59;;;0.26;92.21
41624;BME280;27319;50.306;18.926;2023-03-04T00:18:59;98211.69;;;0.28;93.13
41624;BME280;27319;50.306;18.926;2023-03-04T00:23:00;98200.81;;;0.33;92.75
41624;BME280;27319;50.306;18.926;2023-03-04T00:27:00;98194.72;;;0.32;93.04
41624;BME280;27319;50.306;18.926;2023-03-04T00:31:01;98192.16;;;0.31;93.68
41624;BME280;27319;50.306;18.926;2023-03-04T00:35:03;98186.03;;;0.30;93.21
41624;BME280;27319;50.306;18.926;2023-03-04T00:38:58;98183.09;;;0.35;93.50
41624;BME280;27319;50.306;18.926;2023-03-04T00:42:59;98188.56;;;0.32;93.74
41624;BME280;27319;50.306;18.926;2023-03-04T00:46:42;98174.84;;;0.39;93.67
41624;BME280;27319;50.306;18.926;2023-03-04T00:50:03;98170.81;;;0.34;93.59
41624;BME280;27319;50.306;18.926;2023-03-04T00:54:03;98161.41;;;0.42;93.31
41624;BME280;27319;50.306;18.926;2023-03-04T00:58:04;98158.16;;;0.39;93.24
41624;BME280;27319;50.306;18.926;2023-03-04T01:01:46;98141.69;;;0.35;93.61
41624;BME280;27319;50.306;18.926;2023-03-04T01:05:06;98136.00;;;0.29;93.93
41624;BME280;27319;50.306;18.926;2023-03-04T01:09:07;98127.44;;;0.25;93.60
41624;BME280;27319;50.306;18.926;2023-03-04T01:13:08;98130.72;;;0.29;94.12
41624;BME280;27319;50.306;18.926;2023-03-04T01:17:09;98125.66;;;0.26;93.78
41624;BME280;27319;50.306;18.926;2023-03-04T01:21:10;98115.97;;;0.26;93.66
41624;BME280;27319;50.306;18.926;2023-03-04T01:24:51;98106.88;;;0.18;93.80
41624;BME280;27319;50.306;18.926;2023-03-04T01:27:52;98101.38;;;0.33;93.54
41624;BME280;27319;50.306;18.926;2023-03-04T01:31:13;98103.41;;;0.17;93.71
41624;BME280;27319;50.306;18.926;2023-03-04T01:35:13;98096.97;;;0.21;93.24
41624;BME280;27319;50.306;18.926;2023-03-04T01:38:51;98085.63;;;0.32;93.05
41624;BME280;27319;50.306;18.926;2023-03-04T01:42:52;98086.59;;;0.18;94.12
41624;BME280;27319;50.306;18.926;2023-03-04T01:46:53;98077.53;;;0.22;93.77
41624;BME280;27319;50.306;18.926;2023-03-04T01:50:33;98066.19;;;0.33;93.68
41624;BME280;27319;50.306;18.926;2023-03-04T01:54:33;98070.34;;;0.24;93.79
41624;BME280;27319;50.306;18.926;2023-03-04T01:57:50;98071.41;;;0.22;94.09
41624;BME280;27319;50.306;18.926;2023-03-04T02:00:52;98073.72;;;0.26;93.62
41624;BME280;27319;50.306;18.926;2023-03-04T02:04:13;98065.50;;;0.18;93.80
41624;BME280;27319;50.306;18.926;2023-03-04T02:08:13;98063.78;;;0.30;93.69
41624;BME280;27319;50.306;18.926;2023-03-04T02:12:14;98062.72;;;0.32;93.89
41624;BME280;27319;50.306;18.926;2023-03-04T02:16:15;98062.34;;;0.13;94.36
41624;BME280;27319;50.306;18.926;2023-03-04T02:21:01;98058.78;;;0.14;94.79
41624;BME280;27319;50.306;18.926;2023-03-04T02:27:58;98047.09;;;0.29;94.15
41624;BME280;27319;50.306;18.926;2023-03-04T02:31:59;98034.59;;;0.08;95.10
41624;BME280;27319;50.306;18.926;2023-03-04T02:35:40;98030.16;;;0.08;94.59
41624;BME280;27319;50.306;18.926;2023-03-04T02:39:03;98023.50;;;0.15;94.10
41624;BME280;27319;50.306;18.926;2023-03-04T02:43:02;98009.56;;;0.13;94.71
41624;BME280;27319;50.306;18.926;2023-03-04T02:47:04;98016.41;;;0.16;94.29
41624;BME280;27319;50.306;18.926;2023-03-04T02:51:04;98012.06;;;0.27;94.45
41624;BME280;27319;50.306;18.926;2023-03-04T02:55:05;98001.00;;;0.22;94.24
41624;BME280;27319;50.306;18.926;2023-03-04T02:58:46;98005.34;;;0.11;94.69
41624;BME280;27319;50.306;18.926;2023-03-04T03:02:07;97996.94;;;0.06;95.00
41624;BME280;27319;50.306;18.926;2023-03-04T03:06:08;97992.16;;;0.11;95.04
41624;BME280;27319;50.306;18.926;2023-03-04T03:10:04;97999.44;;;0.07;94.93
41624;BME280;27319;50.306;18.926;2023-03-04T03:14:05;98005.41;;;-0.02;95.38
41624;BME280;27319;50.306;18.926;2023-03-04T03:17:26;98011.50;;;-0.01;95.11
41624;BME280;27319;50.306;18.926;2023-03-04T03:21:26;98005.91;;;0.03;95.47
41624;BME280;27319;50.306;18.926;2023-03-04T03:25:27;98010.56;;;0.00;94.92
41624;BME280;27319;50.306;18.926;2023-03-04T03:29:28;98006.91;;;-0.10;95.43
41624;BME280;27319;50.306;18.926;2023-03-04T03:33:17;98008.31;;;0.06;94.25
41624;BME280;27319;50.306;18.926;2023-03-04T03:37:18;98003.06;;;-0.06;94.85
41624;BME280;27319;50.306;18.926;2023-03-04T03:41:02;98006.47;;;-0.04;94.86
41624;BME280;27319;50.306;18.926;2023-03-04T03:44:23;98002.25;;;-0.07;95.33
41624;BME280;27319;50.306;18.926;2023-03-04T03:48:24;97995.50;;;-0.11;95.12
41624;BME280;27319;50.306;18.926;2023-03-04T03:52:25;98001.19;;;-0.17;95.54
41624;BME280;27319;50.306;18.926;2023-03-04T03:56:26;98003.94;;;-0.06;95.94
41624;BME280;27319;50.306;18.926;2023-03-04T04:00:26;98000.56;;;-0.08;96.55
41624;BME280;27319;50.306;18.926;2023-03-04T04:04:27;97993.09;;;-0.13;96.73
41624;BME280;27319;50.306;18.926;2023-03-04T04:08:13;97996.63;;;-0.02;96.02
41624;BME280;27319;50.306;18.926;2023-03-04T04:11:34;98000.31;;;0.08;94.92
41624;BME280;27319;50.306;18.926;2023-03-04T04:15:35;97993.72;;;0.13;94.33
41624;BME280;27319;50.306;18.926;2023-03-04T04:19:36;97997.16;;;-0.10;95.07
41624;BME280;27319;50.306;18.926;2023-03-04T04:23:37;97986.69;;;0.01;94.64
41624;BME280;27319;50.306;18.926;2023-03-04T04:27:37;97988.09;;;-0.06;94.31
41624;BME280;27319;50.306;18.926;2023-03-04T04:31:38;97990.72;;;-0.06;94.01
41624;BME280;27319;50.306;18.926;2023-03-04T04:35:35;97985.75;;;0.02;93.55
41624;BME280;27319;50.306;18.926;2023-03-04T04:38:52;97985.19;;;-0.13;93.99
41624;BME280;27319;50.306;18.926;2023-03-04T04:42:12;97980.47;;;0.02;93.64
41624;BME280;27319;50.306;18.926;2023-03-04T04:46:14;97980.41;;;-0.08;93.82
41624;BME280;27319;50.306;18.926;2023-03-04T04:49:54;97985.38;;;-0.17;94.27
41624;BME280;27319;50.306;18.926;2023-03-04T04:53:15;97984.41;;;-0.16;94.47
41624;BME280;27319;50.306;18.926;2023-03-04T04:56:22;97987.91;;;-0.15;94.87
41624;BME280;27319;50.306;18.926;2023-03-04T04:59:44;97990.13;;;-0.09;94.19
41624;BME280;27319;50.306;18.926;2023-03-04T05:03:25;97990.44;;;-0.13;94.14
41624;BME280;27319;50.306;18.926;2023-03-04T05:06:34;97982.88;;;-0.30;95.25
41624;BME280;27319;50.306;18.926;2023-03-04T05:09:54;97983.06;;;-0.21;95.10
41624;BME280;27319;50.306;18.926;2023-03-04T05:13:55;97981.78;;;-0.16;94.43
41624;BME280;27319;50.306;18.926;2023-03-04T05:17:56;97978.28;;;-0.04;94.50
41624;BME280;27319;50.306;18.926;2023-03-04T05:21:20;97980.44;;;-0.33;95.22
41624;BME280;27319;50.306;18.926;2023-03-04T05:25:02;97970.25;;;-0.38;96.02
41624;BME280;27319;50.306;18.926;2023-03-04T05:28:05;97964.72;;;-0.35;95.94
41624;BME280;27319;50.306;18.926;2023-03-04T05:31:31;97959.69;;;-0.25;95.41
41624;BME280;27319;50.306;18.926;2023-03-04T05:35:36;97953.88;;;-0.30;95.28
41624;BME280;27319;50.306;18.926;2023-03-04T05:38:57;97951.00;;;-0.15;94.28
41624;BME280;27319;50.306;18.926;2023-03-04T05:42:58;97957.09;;;-0.15;94.18
41624;BME280;27319;50.306;18.926;2023-03-04T05:46:58;97962.31;;;-0.25;94.16
41624;BME280;27319;50.306;18.926;2023-03-04T05:50:19;97945.72;;;-0.15;94.32
41624;BME280;27319;50.306;18.926;2023-03-04T05:54:20;97957.59;;;-0.10;93.79
41624;BME280;27319;50.306;18.926;2023-03-04T05:58:21;97937.69;;;-0.13;94.21
41624;BME280;27319;50.306;18.926;2023-03-04T06:02:02;97938.84;;;-0.05;93.60
41624;BME280;27319;50.306;18.926;2023-03-04T06:05:22;97939.81;;;-0.18;93.69
41624;BME280;27319;50.306;18.926;2023-03-04T06:09:18;97934.38;;;-0.05;93.41
41624;BME280;27319;50.306;18.926;2023-03-04T06:13:19;97940.88;;;-0.08;93.42
41624;BME280;27319;50.306;18.926;2023-03-04T06:17:20;97942.75;;;-0.11;93.26
41624;BME280;27319;50.306;18.926;2023-03-04T06:21:21;97940.63;;;-0.06;92.96
41624;BME280;27319;50.306;18.926;2023-03-04T06:25:22;97934.13;;;-0.13;93.01
41624;BME280;27319;50.306;18.926;2023-03-04T06:28:55;97942.59;;;0.03;91.98
41624;BME280;27319;50.306;18.926;2023-03-04T06:32:16;97952.66;;;-0.02;92.19
41624;BME280;27319;50.306;18.926;2023-03-04T06:35:57;97962.38;;;-0.15;92.39
41624;BME280;27319;50.306;18.926;2023-03-04T06:39:18;97954.78;;;-0.19;92.49
41624;BME280;27319;50.306;18.926;2023-03-04T06:42:35;97956.97;;;-0.01;92.10
41624;BME280;27319;50.306;18.926;2023-03-04T06:45:37;97961.97;;;-0.08;91.29
41624;BME280;27319;50.306;18.926;2023-03-04T06:48:59;97974.03;;;0.06;90.57
41624;BME280;27319;50.306;18.926;2023-03-04T06:52:40;97974.56;;;-0.01;90.54
41624;BME280;27319;50.306;18.926;2023-03-04T06:55:41;97976.28;;;0.00;89.84
41624;BME280;27319;50.306;18.926;2023-03-04T06:59:02;97981.50;;;0.12;89.37
41624;BME280;27319;50.306;18.926;2023-03-04T07:02:43;97988.38;;;0.02;89.47
41624;BME280;27319;50.306;18.926;2023-03-04T07:06:04;97986.16;;;0.09;89.23
41624;BME280;27319;50.306;18.926;2023-03-04T07:10:05;97981.94;;;0.06;89.42
41624;BME280;27319;50.306;18.926;2023-03-04T07:14:06;97988.63;;;0.23;89.00
41624;BME280;27319;50.306;18.926;2023-03-04T07:17:47;97983.41;;;0.10;89.24
41624;BME280;27319;50.306;18.926;2023-03-04T07:21:08;97982.97;;;0.16;89.17
41624;BME280;27319;50.306;18.926;2023-03-04T07:25:08;97995.94;;;0.19;88.79
41624;BME280;27319;50.306;18.926;2023-03-04T07:29:09;97999.44;;;0.07;88.84
41624;BME280;27319;50.306;18.926;2023-03-04T07:33:10;98000.94;;;0.11;89.15
41624;BME280;27319;50.306;18.926;2023-03-04T07:37:11;97998.63;;;0.07;88.82
41624;BME280;27319;50.306;18.926;2023-03-04T07:41:15;97997.84;;;0.17;88.25
41624;BME280;27319;50.306;18.926;2023-03-04T07:45:16;97988.34;;;0.15;87.40
41624;BME280;27319;50.306;18.926;2023-03-04T07:48:57;97992.97;;;0.24;87.46
41624;BME280;27319;50.306;18.926;2023-03-04T07:52:01;97994.13;;;0.32;86.39
41624;BME280;27319;50.306;18.926;2023-03-04T07:55:22;98004.56;;;0.57;87.32
41624;BME280;27319;50.306;18.926;2023-03-04T07:59:23;98000.06;;;0.47;85.38
41624;BME280;27319;50.306;18.926;2023-03-04T08:03:04;97994.31;;;0.29;85.43
41624;BME280;27319;50.306;18.926;2023-03-04T08:06:25;98001.69;;;0.37;85.47
41624;BME280;27319;50.306;18.926;2023-03-04T08:10:26;97995.78;;;0.33;85.51
41624;BME280;27319;50.306;18.926;2023-03-04T08:14:26;97996.16;;;0.40;85.30
41624;BME280;27319;50.306;18.926;2023-03-04T08:18:27;98003.59;;;0.35;85.13
41624;BME280;27319;50.306;18.926;2023-03-04T08:22:28;97998.94;;;0.38;85.29
41624;BME280;27319;50.306;18.926;2023-03-04T08:26:30;97997.53;;;0.45;85.28
41624;BME280;27319;50.306;18.926;2023-03-04T08:30:30;97987.63;;;0.36;84.91
41624;BME280;27319;50.306;18.926;2023-03-04T08:34:31;97992.59;;;0.41;84.77
41624;BME280;27319;50.306;18.926;2023-03-04T08:38:07;97998.56;;;0.55;84.62
41624;BME280;27319;50.306;18.926;2023-03-04T08:42:08;98004.56;;;0.57;84.42
41624;BME280;27319;50.306;18.926;2023-03-04T08:46:08;98002.88;;;0.56;84.41
41624;BME280;27319;50.306;18.926;2023-03-04T08:50:09;98002.41;;;0.62;84.41
41624;BME280;27319;50.306;18.926;2023-03-04T08:54:10;97996.69;;;0.68;84.14
41624;BME280;27319;50.306;18.926;2023-03-04T08:58:11;97990.19;;;0.61;84.40
41624;BME280;27319;50.306;18.926;2023-03-04T09:02:11;97999.44;;;0.67;84.72
41624;BME280;27319;50.306;18.926;2023-03-04T09:06:13;97985.72;;;0.62;84.42
41624;BME280;27319;50.306;18.926;2023-03-04T09:10:08;97993.53;;;0.63;84.77
41624;BME280;27319;50.306;18.926;2023-03-04T09:14:09;97994.72;;;0.59;84.87
41624;BME280;27319;50.306;18.926;2023-03-04T09:18:10;97978.31;;;0.67;84.48
41624;BME280;27319;50.306;18.926;2023-03-04T09:22:11;97985.88;;;0.71;84.81
41624;BME280;27319;50.306;18.926;2023-03-04T09:26:13;97975.31;;;0.71;84.48
41624;BME280;27319;50.306;18.926;2023-03-04T09:30:13;97983.22;;;0.60;84.73
41624;BME280;27319;50.306;18.926;2023-03-04T09:34:13;97988.66;;;0.70;84.81
41624;BME280;27319;50.306;18.926;2023-03-04T09:38:14;97983.25;;;0.71;85.06
41624;BME280;27319;50.306;18.926;2023-03-04T09:42:23;97980.00;;;0.68;84.96
41624;BME280;27319;50.306;18.926;2023-03-04T09:46:25;97977.97;;;0.71;85.03
41624;BME280;27319;50.306;18.926;2023-03-04T09:50:22;97981.50;;;0.59;85.46
41624;BME280;27319;50.306;18.926;2023-03-04T10:06:25;97976.72;;;0.88;85.21
41624;BME280;27319;50.306;18.926;2023-03-04T10:10:29;97969.28;;;0.93;85.52
41624;BME280;27319;50.306;18.926;2023-03-04T10:18:06;97965.31;;;0.98;85.67
41624;BME280;27319;50.306;18.926;2023-03-04T10:22:18;97959.19;;;0.87;85.95
41624;BME280;27319;50.306;18.926;2023-03-04T10:25:54;97961.00;;;0.97;86.08
41624;BME280;27319;50.306;18.926;2023-03-04T10:29:35;97948.84;;;0.84;86.51
41624;BME280;27319;50.306;18.926;2023-03-04T10:32:56;97951.13;;;0.88;86.86
41624;BME280;27319;50.306;18.926;2023-03-04T10:36:58;97951.72;;;0.92;86.69
41624;BME280;27319;50.306;18.926;2023-03-04T10:40:58;97947.69;;;0.99;86.74
41624;BME280;27319;50.306;18.926;2023-03-04T10:45:18;97932.88;;;0.85;87.58
41624;BME280;27319;50.306;18.926;2023-03-04T10:48:53;97930.25;;;0.85;87.81
41624;BME280;27319;50.306;18.926;2023-03-04T10:55:19;97925.47;;;1.01;87.00
41624;BME280;27319;50.306;18.926;2023-03-04T10:58:41;97927.25;;;0.90;87.48
41624;BME280;27319;50.306;18.926;2023-03-04T11:02:43;97916.06;;;0.86;87.91
41624;BME280;27319;50.306;18.926;2023-03-04T11:06:43;97923.78;;;1.00;87.67
41624;BME280;27319;50.306;18.926;2023-03-04T11:10:14;97925.09;;;0.95;87.57
41624;BME280;27319;50.306;18.926;2023-03-04T11:17:58;97915.22;;;0.86;88.29
41624;BME280;27319;50.306;18.926;2023-03-04T11:21:58;97908.88;;;0.99;88.30
41624;BME280;27319;50.306;18.926;2023-03-04T11:26:01;97900.13;;;0.99;88.83
41624;BME280;27319;50.306;18.926;2023-03-04T11:33:20;97898.44;;;1.09;88.25
41624;BME280;27319;50.306;18.926;2023-03-04T11:36:25;97888.00;;;1.07;88.49
41624;BME280;27319;50.306;18.926;2023-03-04T11:40:03;97885.38;;;1.07;88.84
41624;BME280;27319;50.306;18.926;2023-03-04T11:44:02;97895.19;;;1.05;88.82
41624;BME280;27319;50.306;18.926;2023-03-04T11:51:12;97876.38;;;1.10;88.75
41624;BME280;27319;50.306;18.926;2023-03-04T11:59:27;97872.66;;;1.12;88.47
41624;BME280;27319;50.306;18.926;2023-03-04T12:07:34;97861.13;;;1.13;88.21
41624;BME280;27319;50.306;18.926;2023-03-04T12:11:21;97850.78;;;1.32;87.44
41624;BME280;27319;50.306;18.926;2023-03-04T12:15:09;97856.16;;;1.31;87.88
41624;BME280;27319;50.306;18.926;2023-03-04T12:18:33;97860.84;;;1.38;87.22
41624;BME280;27319;50.306;18.926;2023-03-04T12:26:30;97850.38;;;1.48;87.23
41624;BME280;27319;50.306;18.926;2023-03-04T12:57:13;97827.81;;;1.86;85.31
41624;BME280;27319;50.306;18.926;2023-03-04T13:01:27;97819.38;;;1.92;85.68
41624;BME280;27319;50.306;18.926;2023-03-04T13:09:08;97822.25;;;2.00;85.25
41624;BME280;27319;50.306;18.926;2023-03-04T13:12:48;97816.94;;;2.11;84.65
41624;BME280;27319;50.306;18.926;2023-03-04T13:16:50;97805.63;;;2.09;84.83
41624;BME280;27319;50.306;18.926;2023-03-04T13:25:01;97805.88;;;2.06;85.37
41624;BME280;27319;50.306;18.926;2023-03-04T13:32:37;97801.16;;;2.10;85.48
41624;BME280;27319;50.306;18.926;2023-03-04T13:39:22;97797.97;;;2.27;84.82
41624;BME280;27319;50.306;18.926;2023-03-04T13:42:43;97797.34;;;2.34;84.56
41624;BME280;27319;50.306;18.926;2023-03-04T13:49:40;97793.44;;;2.38;84.17
41624;BME280;27319;50.306;18.926;2023-03-04T13:57:18;97804.50;;;2.43;84.23
41624;BME280;27319;50.306;18.926;2023-03-04T14:00:59;97799.59;;;2.59;83.81
41624;BME280;27319;50.306;18.926;2023-03-04T14:04:26;97800.03;;;2.64;83.73
41624;BME280;27319;50.306;18.926;2023-03-04T14:08:17;97794.34;;;2.69;83.43
41624;BME280;27319;50.306;18.926;2023-03-04T14:11:38;97800.09;;;2.74;83.51
41624;BME280;27319;50.306;18.926;2023-03-04T14:15:26;97803.31;;;2.77;83.64
41624;BME280;27319;50.306;18.926;2023-03-04T14:18:28;97785.22;;;2.82;82.89
41624;BME280;27319;50.306;18.926;2023-03-04T14:21:30;97790.06;;;2.77;82.62
41624;BME280;27319;50.306;18.926;2023-03-04T14:24:31;97788.50;;;2.75;83.15
41624;BME280;27319;50.306;18.926;2023-03-04T14:27:34;97775.72;;;2.80;82.76
41624;BME280;27319;50.306;18.926;2023-03-04T14:30:55;97774.94;;;2.89;82.51
41624;BME280;27319;50.306;18.926;2023-03-04T14:34:29;97779.38;;;2.88;82.44
41624;BME280;27319;50.306;18.926;2023-03-04T14:38:02;97782.72;;;2.90;82.70
41624;BME280;27319;50.306;18.926;2023-03-04T14:41:44;97783.47;;;2.92;82.31
41624;BME280;27319;50.306;18.926;2023-03-04T14:45:09;97779.84;;;2.93;82.22
41624;BME280;27319;50.306;18.926;2023-03-04T14:49:10;97781.50;;;2.94;81.98
41624;BME280;27319;50.306;18.926;2023-03-04T14:56:33;97776.22;;;2.94;81.66
41624;BME280;27319;50.306;18.926;2023-03-04T14:59:55;97775.78;;;2.99;81.88
41624;BME280;27319;50.306;18.926;2023-03-04T15:04:08;97773.69;;;2.93;81.85
41624;BME280;27319;50.306;18.926;2023-03-04T15:07:53;97769.09;;;2.95;81.48
41624;BME280;27319;50.306;18.926;2023-03-04T15:10:58;97767.84;;;2.99;81.50
41624;BME280;27319;50.306;18.926;2023-03-04T15:18:26;97766.09;;;3.09;81.34
41624;BME280;27319;50.306;18.926;2023-03-04T15:22:26;97759.25;;;3.06;80.94
41624;BME280;27319;50.306;18.926;2023-03-04T15:26:27;97751.00;;;3.00;81.22
41624;BME280;27319;50.306;18.926;2023-03-04T15:30:34;97752.44;;;2.83;81.14
41624;BME280;27319;50.306;18.926;2023-03-04T15:34:35;97761.53;;;2.90;80.36
41624;BME280;27319;50.306;18.926;2023-03-04T15:38:16;97761.19;;;2.74;80.58
41624;BME280;27319;50.306;18.926;2023-03-04T15:41:37;97755.91;;;2.74;80.50
41624;BME280;27319;50.306;18.926;2023-03-04T15:45:41;97761.84;;;2.67;80.23
41624;BME280;27319;50.306;18.926;2023-03-04T15:49:42;97765.03;;;2.61;81.23
41624;BME280;27319;50.306;18.926;2023-03-04T15:53:43;97761.91;;;2.56;81.71
41624;BME280;27319;50.306;18.926;2023-03-04T15:57:44;97765.28;;;2.58;81.64
41624;BME280;27319;50.306;18.926;2023-03-04T16:01:44;97753.06;;;2.46;82.15
41624;BME280;27319;50.306;18.926;2023-03-04T16:05:46;97754.91;;;2.45;82.57
41624;BME280;27319;50.306;18.926;2023-03-04T16:09:26;97754.63;;;2.48;82.28
41624;BME280;27319;50.306;18.926;2023-03-04T16:12:27;97768.31;;;2.53;82.30
41624;BME280;27319;50.306;18.926;2023-03-04T16:15:29;97762.38;;;2.40;82.60
41624;BME280;27319;50.306;18.926;2023-03-04T16:18:49;97763.31;;;2.50;82.49
41624;BME280;27319;50.306;18.926;2023-03-04T16:22:51;97764.19;;;2.40;82.91
41624;BME280;27319;50.306;18.926;2023-03-04T16:26:51;97754.44;;;2.61;82.36
41624;BME280;27319;50.306;18.926;2023-03-04T16:30:52;97754.16;;;2.43;82.75
41624;BME280;27319;50.306;18.926;2023-03-04T16:34:53;97754.63;;;2.48;82.20
41624;BME280;27319;50.306;18.926;2023-03-04T16:38:34;97757.84;;;2.52;82.19
41624;BME280;27319;50.306;18.926;2023-03-04T16:41:54;97760.25;;;2.34;82.90
41624;BME280;27319;50.306;18.926;2023-03-04T16:45:55;97770.97;;;2.53;82.34
41624;BME280;27319;50.306;18.926;2023-03-04T16:49:56;97759.47;;;2.43;83.04
41624;BME280;27319;50.306;18.926;2023-03-04T16:53:57;97762.13;;;2.43;82.76
41624;BME280;27319;50.306;18.926;2023-03-04T16:57:57;97765.50;;;2.45;82.27
41624;BME280;27319;50.306;18.926;2023-03-04T17:01:58;97763.16;;;2.52;82.76
41624;BME280;27319;50.306;18.926;2023-03-04T17:05:59;97768.06;;;2.56;83.16
41624;BME280;27319;50.306;18.926;2023-03-04T17:09:40;97768.88;;;3.56;87.18
41624;BME280;27319;50.306;18.926;2023-03-04T17:12:41;97771.00;;;2.83;81.15
41624;BME280;27319;50.306;18.926;2023-03-04T17:16:03;97774.03;;;2.79;81.20
41624;BME280;27319;50.306;18.926;2023-03-04T17:19:34;97781.28;;;2.77;81.55
41624;BME280;27319;50.306;18.926;2023-03-04T17:23:35;97788.53;;;2.54;82.91
41624;BME280;27319;50.306;18.926;2023-03-04T17:27:36;97791.22;;;2.64;82.94
41624;BME280;27319;50.306;18.926;2023-03-04T17:31:36;97779.63;;;2.55;83.97
41624;BME280;27319;50.306;18.926;2023-03-04T17:35:17;97784.50;;;2.50;85.11
41624;BME280;27319;50.306;18.926;2023-03-04T17:38:18;97782.19;;;2.46;86.50
41624;BME280;27319;50.306;18.926;2023-03-04T17:41:20;97776.97;;;2.55;85.93
41624;BME280;27319;50.306;18.926;2023-03-04T17:44:21;97778.50;;;2.58;85.44
41624;BME280;27319;50.306;18.926;2023-03-04T17:47:42;97780.06;;;2.40;85.27
41624;BME280;27319;50.306;18.926;2023-03-04T17:51:49;97776.59;;;2.39;86.00
41624;BME280;27319;50.306;18.926;2023-03-04T17:55:53;97776.44;;;2.41;85.55
41624;BME280;27319;50.306;18.926;2023-03-04T17:59:51;97780.59;;;2.34;86.32
41624;BME280;27319;50.306;18.926;2023-03-04T18:03:52;97781.16;;;2.58;85.48
41624;BME280;27319;50.306;18.926;2023-03-04T18:06:53;97781.44;;;2.55;85.54
41624;BME280;27319;50.306;18.926;2023-03-04T18:10:14;97782.34;;;2.65;85.67
41624;BME280;27319;50.306;18.926;2023-03-04T18:14:15;97784.16;;;2.64;85.77
41624;BME280;27319;50.306;18.926;2023-03-04T18:21:26;97779.69;;;2.65;86.71
41624;BME280;27319;50.306;18.926;2023-03-04T18:25:08;97786.03;;;2.73;86.83
41624;BME280;27319;50.306;18.926;2023-03-04T18:29:08;97776.00;;;2.77;86.95
41624;BME280;27319;50.306;18.926;2023-03-04T18:33:09;97776.88;;;2.87;86.47
41624;BME280;27319;50.306;18.926;2023-03-04T18:37:10;97776.50;;;2.91;86.61
41624;BME280;27319;50.306;18.926;2023-03-04T18:41:26;97780.94;;;2.91;86.83
41624;BME280;27319;50.306;18.926;2023-03-04T18:48:46;97780.41;;;2.97;86.03
41624;BME280;27319;50.306;18.926;2023-03-04T18:52:48;97780.25;;;2.89;86.58
41624;BME280;27319;50.306;18.926;2023-03-04T18:56:34;97780.72;;;3.03;86.23
41624;BME280;27319;50.306;18.926;2023-03-04T18:59:43;97784.44;;;2.91;86.51
41624;BME280;27319;50.306;18.926;2023-03-04T19:03:12;97785.25;;;2.92;86.01
41624;BME280;27319;50.306;18.926;2023-03-04T19:07:13;97790.50;;;2.82;86.13
41624;BME280;27319;50.306;18.926;2023-03-04T19:11:14;97793.63;;;2.87;85.92
41624;BME280;27319;50.306;18.926;2023-03-04T19:15:15;97789.00;;;2.89;85.34
41624;BME280;27319;50.306;18.926;2023-03-04T19:19:16;97790.28;;;2.85;85.89
41624;BME280;27319;50.306;18.926;2023-03-04T19:23:17;97789.09;;;2.78;85.97
41624;BME280;27319;50.306;18.926;2023-03-04T19:27:18;97779.00;;;2.72;86.02
41624;BME280;27319;50.306;18.926;2023-03-04T19:31:24;97775.72;;;2.80;86.12
41624;BME280;27319;50.306;18.926;2023-03-04T19:35:25;97783.09;;;2.76;86.88
41624;BME280;27319;50.306;18.926;2023-03-04T19:39:25;97788.31;;;2.87;87.43
41624;BME280;27319;50.306;18.926;2023-03-04T19:42:48;97786.75;;;2.85;87.85
41624;BME280;27319;50.306;18.926;2023-03-04T19:45:56;97785.22;;;2.82;88.29
41624;BME280;27319;50.306;18.926;2023-03-04T19:48:57;97793.16;;;2.82;88.80
41624;BME280;27319;50.306;18.926;2023-03-04T19:51:58;97786.88;;;2.83;88.48
41624;BME280;27319;50.306;18.926;2023-03-04T19:55:00;97787.41;;;2.77;88.95
41624;BME280;27319;50.306;18.926;2023-03-04T19:58:01;97788.47;;;2.95;88.83
41624;BME280;27319;50.306;18.926;2023-03-04T20:01:02;97787.34;;;2.88;88.81
41624;BME280;27319;50.306;18.926;2023-03-04T20:04:26;97782.25;;;2.96;88.39
41624;BME280;27319;50.306;18.926;2023-03-04T20:08:27;97783.72;;;2.89;88.48
41624;BME280;27319;50.306;18.926;2023-03-04T20:12:15;97780.09;;;2.90;88.80
41624;BME280;27319;50.306;18.926;2023-03-04T20:15:17;97784.72;;;2.98;88.28
41624;BME280;27319;50.306;18.926;2023-03-04T20:18:18;97786.19;;;2.81;88.78
41624;BME280;27319;50.306;18.926;2023-03-04T20:21:19;97779.50;;;2.87;88.58
41624;BME280;27319;50.306;18.926;2023-03-04T20:24:20;97785.22;;;2.82;88.75
41624;BME280;27319;50.306;18.926;2023-03-04T20:27:22;97789.41;;;2.85;88.99
41624;BME280;27319;50.306;18.926;2023-03-04T20:30:23;97782.31;;;2.85;88.53
41624;BME280;27319;50.306;18.926;2023-03-04T20:33:24;97796.78;;;2.81;89.04
41624;BME280;27319;50.306;18.926;2023-03-04T20:36:45;97783.50;;;2.72;89.06
41624;BME280;27319;50.306;18.926;2023-03-04T20:40:46;97781.59;;;2.83;88.66
41624;BME280;27319;50.306;18.926;2023-03-04T20:44:47;97785.56;;;2.68;89.22
41624;BME280;27319;50.306;18.926;2023-03-04T20:48:44;97784.59;;;2.69;89.02
41624;BME280;27319;50.306;18.926;2023-03-04T20:51:45;97787.25;;;2.69;89.93
41624;BME280;27319;50.306;18.926;2023-03-04T20:54:46;97783.50;;;2.72;90.05
41624;BME280;27319;50.306;18.926;2023-03-04T20:57:47;97781.94;;;2.69;90.44
41624;BME280;27319;50.306;18.926;2023-03-04T21:01:09;97790.53;;;2.62;90.09
41624;BME280;27319;50.306;18.926;2023-03-04T21:05:10;97793.69;;;2.76;90.23
41624;BME280;27319;50.306;18.926;2023-03-04T21:09:12;97820.00;;;2.68;90.09
41624;BME280;27319;50.306;18.926;2023-03-04T21:12:51;97812.19;;;2.46;87.67
41624;BME280;27319;50.306;18.926;2023-03-04T21:15:52;97824.88;;;2.11;87.28
41624;BME280;27319;50.306;18.926;2023-03-04T21:18:54;97819.50;;;2.02;86.59
41624;BME280;27319;50.306;18.926;2023-03-04T21:21:55;97818.06;;;1.98;86.49
41624;BME280;27319;50.306;18.926;2023-03-04T21:24:57;97816.31;;;1.87;85.76